Wetterdaten: Woche 08.05.17 - 14.05.17 (KW19)
Datum Zeit Temp. A. Feuchte A. Luftdruck Regen Wind Richtung Taupunkt Windchill Windben
08.05.2017 00:00 13,3 C 81 % 1009,6 hPa 0,0 l/m 5,9 km/h N 10,1 C 13,1 C 17,7 km/h
08.05.2017 01:00 13,1 C 81 % 1009,8 hPa 0,0 l/m 4,3 km/h N 9,9 C 13,1 C 15,3 km/h
08.05.2017 02:00 12,8 C 81 % 1009,6 hPa 0,0 l/m 4,9 km/h N 9,7 C 12,8 C 14,5 km/h
08.05.2017 03:00 12,8 C 81 % 1009,1 hPa 0,0 l/m 7,4 km/h N 9,6 C 12,1 C 18,5 km/h
08.05.2017 04:00 12,4 C 81 % 1008,8 hPa 0,0 l/m 6,9 km/h N 9,2 C 12,0 C 18,9 km/h
08.05.2017 05:00 12,1 C 81 % 1008,8 hPa 0,0 l/m 5,8 km/h N 8,9 C 12,0 C 16,5 km/h
08.05.2017 06:00 12,5 C 81 % 1008,9 hPa 0,0 l/m 8,0 km/h N 9,3 C 11,5 C 21,7 km/h
08.05.2017 07:00 13,3 C 80 % 1009,2 hPa 0,0 l/m 8,2 km/h N 9,8 C 12,2 C 22,1 km/h
08.05.2017 08:00 14,2 C 77 % 1009,3 hPa 0,0 l/m 10,0 km/h N 10,1 C 12,2 C 24,5 km/h
08.05.2017 09:00 14,6 C 74 % 1009,4 hPa 0,0 l/m 10,0 km/h N 10,1 C 12,7 C 24,1 km/h
08.05.2017 10:00 15,3 C 72 % 1009,4 hPa 0,0 l/m 9,0 km/h N 10,3 C 14,0 C 25,8 km/h
08.05.2017 11:00 16,5 C 69 % 1009,3 hPa 0,0 l/m 10,9 km/h N 10,8 C 14,5 C 26,5 km/h
08.05.2017 12:00 17,3 C 65 % 1009,0 hPa 0,0 l/m 8,9 km/h N 10,6 C 16,1 C 23,7 km/h
08.05.2017 13:00 17,8 C 61 % 1008,6 hPa 0,0 l/m 7,6 km/h N 10,2 C 17,3 C 20,9 km/h
08.05.2017 14:00 18,8 C 50 % 1008,3 hPa 0,0 l/m 7,4 km/h N 8,0 C 18,3 C 22,9 km/h
08.05.2017 15:00 18,7 C 53 % 1008,1 hPa 0,0 l/m 7,9 km/h N 8,9 C 18,0 C 24,2 km/h
08.05.2017 16:00 17,9 C 63 % 1008,0 hPa 0,0 l/m 9,6 km/h N 10,8 C 16,5 C 25,7 km/h
08.05.2017 17:00 16,7 C 66 % 1008,1 hPa 0,0 l/m 8,4 km/h N 10,3 C 15,4 C 24,5 km/h
08.05.2017 18:00 15,3 C 70 % 1008,6 hPa 0,0 l/m 11,3 km/h N 9,8 C 13,0 C 32,6 km/h
08.05.2017 19:00 13,8 C 73 % 1009,5 hPa 0,0 l/m 13,2 km/h N 9,1 C 10,4 C 33,0 km/h
08.05.2017 20:00 12,9 C 77 % 1010,3 hPa 0,0 l/m 13,1 km/h N 8,9 C 9,4 C 29,4 km/h
08.05.2017 21:00 12,6 C 78 % 1011,0 hPa 0,0 l/m 10,1 km/h N 8,7 C 10,4 C 23,7 km/h
08.05.2017 22:00 12,1 C 80 % 1011,7 hPa 0,3 l/m 6,2 km/h N 8,8 C 11,2 C 16,9 km/h
08.05.2017 23:00 11,6 C 82 % 1012,2 hPa 1,3 l/m 2,0 km/h N 8,5 C 11,6 C 10,1 km/h
09.05.2017 00:00 10,6 C 82 % 1012,5 hPa 0,0 l/m 2,4 km/h N 7,6 C 10,6 C 11,7 km/h
09.05.2017 01:00 10,1 C 82 % 1012,5 hPa 0,0 l/m 4,6 km/h N 7,2 C 10,1 C 13,3 km/h
09.05.2017 02:00 9,8 C 82 % 1012,4 hPa 0,0 l/m 4,2 km/h N 6,9 C 9,8 C 13,7 km/h
09.05.2017 03:00 9,4 C 82 % 1012,4 hPa 0,0 l/m 3,7 km/h N 6,5 C 9,4 C 13,3 km/h
09.05.2017 04:00 9,0 C 82 % 1012,4 hPa 0,0 l/m 3,8 km/h N 6,1 C 9,0 C 12,5 km/h
09.05.2017 05:00 9,0 C 82 % 1012,4 hPa 0,0 l/m 4,8 km/h N 6,1 C 9,0 C 15,7 km/h
09.05.2017 06:00 9,1 C 82 % 1012,6 hPa 0,3 l/m 5,0 km/h N 6,1 C 9,0 C 16,9 km/h
09.05.2017 07:00 7,8 C 83 % 1013,3 hPa 2,3 l/m 4,2 km/h N 5,0 C 7,8 C 16,5 km/h
09.05.2017 08:00 6,9 C 83 % 1014,0 hPa 1,0 l/m 4,7 km/h N 4,2 C 6,9 C 14,1 km/h
09.05.2017 09:00 6,5 C 83 % 1014,7 hPa 0,5 l/m 3,7 km/h N 3,8 C 6,5 C 14,1 km/h
09.05.2017 10:00 6,7 C 83 % 1015,2 hPa 0,0 l/m 4,3 km/h N 4,0 C 6,7 C 15,3 km/h
09.05.2017 11:00 6,4 C 83 % 1015,6 hPa 0,5 l/m 4,3 km/h N 3,7 C 6,4 C 15,3 km/h
09.05.2017 12:00 6,1 C 83 % 1015,8 hPa 0,0 l/m 3,5 km/h N 3,5 C 6,1 C 11,7 km/h
09.05.2017 13:00 6,6 C 82 % 1015,4 hPa 0,0 l/m 1,9 km/h N 3,7 C 6,6 C 9,6 km/h
09.05.2017 14:00 7,4 C 79 % 1015,1 hPa 0,0 l/m 3,4 km/h N 4,0 C 7,4 C 12,9 km/h
09.05.2017 15:00 7,8 C 74 % 1014,8 hPa 0,0 l/m 2,8 km/h N 3,3 C 7,8 C 12,5 km/h
09.05.2017 16:00 8,6 C 60 % 1014,5 hPa 0,3 l/m 7,0 km/h N 1,3 C 8,2 C 20,9 km/h
09.05.2017 17:00 8,9 C 54 % 1014,7 hPa 0,0 l/m 7,2 km/h N 0,2 C 8,2 C 22,9 km/h
09.05.2017 18:00 8,6 C 54 % 1014,6 hPa 0,0 l/m 7,3 km/h N -0,2 C 8,0 C 21,3 km/h
09.05.2017 19:00 8,0 C 55 % 1014,9 hPa 0,0 l/m 6,5 km/h N -0,5 C 7,4 C 21,7 km/h
09.05.2017 20:00 7,1 C 58 % 1015,5 hPa 0,0 l/m 2,8 km/h N -0,8 C 7,1 C 12,5 km/h
09.05.2017 21:00 5,8 C 63 % 1016,0 hPa 0,0 l/m 0,3 km/h N -0,7 C 5,8 C 6,4 km/h
09.05.2017 22:00 4,8 C 68 % 1016,2 hPa 0,0 l/m 0,1 km/h N -0,7 C 4,8 C 2,0 km/h
09.05.2017 23:00 3,5 C 72 % 1016,3 hPa 0,0 l/m 0,0 km/h N -1,1 C 3,5 C 0,8 km/h
10.05.2017 00:00 2,8 C 75 % 1016,4 hPa 0,0 l/m 0,0 km/h N -1,2 C 2,8 C 0,8 km/h
10.05.2017 01:00 2,7 C 76 % 1016,3 hPa 0,0 l/m 0,0 km/h N -1,1 C 2,7 C 0,0 km/h
10.05.2017 02:00 1,9 C 78 % 1016,0 hPa 0,0 l/m 0,0 km/h N -1,7 C 1,9 C 0,0 km/h
10.05.2017 03:00 1,5 C 81 % 1015,4 hPa 0,0 l/m 0,0 km/h N -1,4 C 1,5 C 0,4 km/h
10.05.2017 04:00 1,3 C 82 % 1015,1 hPa 0,0 l/m 0,0 km/h N -1,5 C 1,3 C 0,4 km/h
10.05.2017 05:00 0,5 C 82 % 1015,0 hPa 0,0 l/m 0,0 km/h N -2,2 C 0,5 C 0,4 km/h
10.05.2017 06:00 0,6 C 83 % 1014,9 hPa 0,0 l/m 0,1 km/h N -1,9 C 0,6 C 0,8 km/h
10.05.2017 07:00 1,9 C 83 % 1014,8 hPa 0,0 l/m 0,0 km/h N -0,7 C 1,9 C 0,0 km/h
10.05.2017 08:00 4,8 C 83 % 1014,5 hPa 0,0 l/m 0,0 km/h N 2,1 C 4,8 C 2,4 km/h
10.05.2017 09:00 9,1 C 66 % 1014,0 hPa 0,0 l/m 1,0 km/h N 3,0 C 9,1 C 8,4 km/h
10.05.2017 10:00 11,9 C 56 % 1013,5 hPa 0,0 l/m 1,7 km/h N 3,4 C 11,9 C 9,3 km/h
10.05.2017 11:00 13,6 C 53 % 1013,0 hPa 0,0 l/m 1,6 km/h N 4,2 C 13,6 C 9,3 km/h
10.05.2017 12:00 14,7 C 53 % 1012,4 hPa 0,0 l/m 0,8 km/h N 5,1 C 14,7 C 6,0 km/h
10.05.2017 13:00 14,4 C 52 % 1011,9 hPa 0,0 l/m 1,0 km/h N 4,5 C 14,4 C 7,6 km/h
10.05.2017 14:00 16,2 C 50 % 1011,3 hPa 0,0 l/m 1,5 km/h N 5,6 C 16,2 C 11,3 km/h
10.05.2017 15:00 15,7 C 49 % 1010,7 hPa 0,0 l/m 1,0 km/h N 4,9 C 15,7 C 7,6 km/h
10.05.2017 16:00 15,2 C 49 % 1010,3 hPa 0,0 l/m 1,1 km/h N 4,5 C 15,2 C 8,1 km/h
10.05.2017 17:00 15,1 C 50 % 1009,7 hPa 0,0 l/m 1,0 km/h N 4,6 C 15,1 C 6,8 km/h
10.05.2017 18:00 15,8 C 47 % 1009,1 hPa 0,0 l/m 0,9 km/h N 4,6 C 15,8 C 6,0 km/h
10.05.2017 19:00 15,9 C 49 % 1008,5 hPa 0,0 l/m 0,3 km/h N 5,3 C 15,9 C 4,8 km/h
10.05.2017 20:00 14,1 C 55 % 1007,9 hPa 0,0 l/m 0,1 km/h N 5,1 C 14,1 C 3,2 km/h
10.05.2017 21:00 11,8 C 61 % 1007,8 hPa 0,0 l/m 0,1 km/h N 4,5 C 11,8 C 3,2 km/h
10.05.2017 22:00 9,4 C 68 % 1007,8 hPa 0,0 l/m 0,0 km/h N 3,8 C 9,4 C 0,0 km/h
10.05.2017 23:00 7,1 C 75 % 1007,5 hPa 0,0 l/m 0,0 km/h N 3,0 C 7,1 C 0,0 km/h
11.05.2017 00:00 5,9 C 80 % 1007,5 hPa 0,0 l/m 0,0 km/h N 2,6 C 5,9 C 0,0 km/h
11.05.2017 01:00 5,3 C 82 % 1007,2 hPa 0,0 l/m 0,0 km/h N 2,4 C 5,3 C 0,4 km/h
11.05.2017 02:00 4,4 C 82 % 1006,9 hPa 0,0 l/m 0,0 km/h N 1,6 C 4,4 C 0,0 km/h
11.05.2017 03:00 3,8 C 83 % 1006,9 hPa 0,0 l/m 0,0 km/h N 1,2 C 3,8 C 0,0 km/h
11.05.2017 04:00 3,4 C 83 % 1006,7 hPa 0,0 l/m 0,0 km/h N 0,8 C 3,4 C 0,0 km/h
11.05.2017 05:00 3,0 C 83 % 1006,8 hPa 0,0 l/m 0,0 km/h N 0,5 C 3,0 C 0,0 km/h
11.05.2017 06:00 3,5 C 83 % 1007,1 hPa 0,0 l/m 0,0 km/h N 0,9 C 3,5 C 0,0 km/h
11.05.2017 07:00 5,7 C 83 % 1007,2 hPa 0,0 l/m 0,2 km/h N 3,1 C 5,7 C 3,2 km/h
11.05.2017 08:00 8,8 C 83 % 1007,4 hPa 0,0 l/m 0,3 km/h N 6,0 C 8,8 C 4,0 km/h
11.05.2017 09:00 12,3 C 78 % 1007,5 hPa 0,0 l/m 0,4 km/h N 8,5 C 12,3 C 5,6 km/h
11.05.2017 10:00 14,8 C 69 % 1007,5 hPa 0,0 l/m 0,4 km/h N 9,1 C 14,8 C 4,8 km/h
11.05.2017 11:00 16,4 C 65 % 1007,3 hPa 0,0 l/m 0,7 km/h N 9,8 C 16,4 C 6,8 km/h
11.05.2017 12:00 18,3 C 60 % 1007,0 hPa 0,0 l/m 0,9 km/h N 10,3 C 18,3 C 7,6 km/h
11.05.2017 13:00 20,3 C 57 % 1006,2 hPa 0,0 l/m 1,0 km/h N 11,4 C 20,3 C 8,4 km/h
11.05.2017 14:00 21,4 C 52 % 1005,5 hPa 0,0 l/m 1,5 km/h N 11,1 C 21,4 C 9,3 km/h
11.05.2017 15:00 20,7 C 50 % 1004,6 hPa 0,0 l/m 1,6 km/h N 9,8 C 20,7 C 10,1 km/h
11.05.2017 16:00 20,7 C 53 % 1003,7 hPa 0,0 l/m 1,2 km/h N 10,7 C 20,7 C 8,9 km/h
11.05.2017 17:00 21,3 C 52 % 1002,8 hPa 0,0 l/m 0,6 km/h N 11,1 C 21,3 C 7,6 km/h
11.05.2017 18:00 22,0 C 51 % 1001,8 hPa 0,0 l/m 1,0 km/h N 11,3 C 22,0 C 8,4 km/h
11.05.2017 19:00 21,3 C 54 % 1001,0 hPa 0,0 l/m 0,6 km/h N 11,5 C 21,3 C 6,8 km/h
11.05.2017 20:00 20,1 C 53 % 1000,7 hPa 0,0 l/m 1,5 km/h N 10,1 C 20,1 C 8,9 km/h
11.05.2017 21:00 19,0 C 55 % 1000,5 hPa 0,0 l/m 0,9 km/h N 9,8 C 19,0 C 6,8 km/h
11.05.2017 22:00 17,6 C 58 % 1000,2 hPa 0,0 l/m 0,0 km/h N 9,3 C 17,6 C 2,0 km/h
11.05.2017 23:00 15,4 C 65 % 999,7 hPa 0,0 l/m 0,0 km/h N 8,8 C 15,4 C 1,2 km/h
12.05.2017 00:00 14,4 C 67 % 999,8 hPa 0,0 l/m 0,0 km/h N 8,3 C 14,4 C 1,2 km/h
12.05.2017 01:00 13,0 C 71 % 999,6 hPa 0,0 l/m 0,0 km/h N 7,8 C 13,0 C 0,0 km/h
12.05.2017 02:00 10,6 C 78 % 999,7 hPa 0,0 l/m 0,0 km/h N 6,9 C 10,6 C 0,0 km/h
12.05.2017 03:00 9,6 C 81 % 1000,0 hPa 0,0 l/m 0,0 km/h N 6,5 C 9,6 C 2,0 km/h
12.05.2017 04:00 9,5 C 82 % 1000,3 hPa 0,0 l/m 0,0 km/h N 6,6 C 9,5 C 1,6 km/h
12.05.2017 05:00 9,5 C 82 % 1000,3 hPa 0,0 l/m 0,0 km/h N 6,6 C 9,5 C 0,4 km/h
12.05.2017 06:00 10,4 C 82 % 1000,8 hPa 0,0 l/m 0,0 km/h N 7,4 C 10,4 C 0,4 km/h
12.05.2017 07:00 12,3 C 82 % 1001,3 hPa 0,0 l/m 0,1 km/h N 9,2 C 12,3 C 2,0 km/h
12.05.2017 08:00 14,5 C 78 % 1001,6 hPa 0,0 l/m 0,0 km/h N 10,7 C 14,5 C 1,6 km/h
12.05.2017 09:00 17,9 C 68 % 1002,0 hPa 0,0 l/m 0,0 km/h N 11,9 C 17,9 C 1,2 km/h
12.05.2017 10:00 21,5 C 56 % 1002,4 hPa 0,0 l/m 1,9 km/h N 12,3 C 21,5 C 11,3 km/h
12.05.2017 11:00 22,1 C 49 % 1003,1 hPa 0,0 l/m 9,7 km/h N 10,7 C 21,1 C 28,2 km/h
12.05.2017 12:00 21,5 C 51 % 1003,3 hPa 0,0 l/m 6,4 km/h N 10,9 C 21,2 C 28,6 km/h
12.05.2017 13:00 21,5 C 51 % 1003,6 hPa 0,0 l/m 8,8 km/h N 10,8 C 20,7 C 25,0 km/h
12.05.2017 14:00 21,8 C 51 % 1003,8 hPa 0,0 l/m 9,8 km/h N 11,1 C 20,8 C 25,4 km/h
12.05.2017 15:00 21,9 C 52 % 1003,7 hPa 0,0 l/m 3,9 km/h N 11,6 C 21,9 C 14,1 km/h
12.05.2017 16:00 22,8 C 52 % 1003,4 hPa 0,0 l/m 0,2 km/h N 12,3 C 22,8 C 4,0 km/h
12.05.2017 17:00 22,5 C 53 % 1003,5 hPa 0,0 l/m 0,5 km/h N 12,4 C 22,5 C 4,4 km/h
12.05.2017 18:00 21,4 C 57 % 1003,5 hPa 0,0 l/m 1,1 km/h N 12,5 C 21,4 C 8,4 km/h
12.05.2017 19:00 20,1 C 62 % 1003,5 hPa 0,0 l/m 0,1 km/h N 12,6 C 20,1 C 4,0 km/h
12.05.2017 20:00 19,1 C 66 % 1003,9 hPa 0,0 l/m 0,1 km/h N 12,5 C 19,1 C 1,6 km/h
12.05.2017 21:00 17,5 C 71 % 1004,2 hPa 0,0 l/m 0,0 km/h N 12,2 C 17,5 C 0,8 km/h
12.05.2017 22:00 16,2 C 76 % 1004,3 hPa 0,0 l/m 0,0 km/h N 12,0 C 16,2 C 0,8 km/h
12.05.2017 23:00 15,6 C 78 % 1004,6 hPa 0,0 l/m 0,0 km/h N 11,8 C 15,6 C 1,2 km/h
13.05.2017 00:00 15,0 C 78 % 1005,1 hPa 0,0 l/m 0,0 km/h N 11,2 C 15,0 C 0,0 km/h
13.05.2017 01:00 13,4 C 81 % 1005,2 hPa 0,0 l/m 0,0 km/h N 10,2 C 13,4 C 1,2 km/h
13.05.2017 02:00 12,6 C 81 % 1005,1 hPa 0,0 l/m 0,0 km/h N 9,5 C 12,6 C 0,4 km/h
13.05.2017 03:00 12,1 C 82 % 1005,3 hPa 0,0 l/m 0,0 km/h N 9,1 C 12,1 C 0,8 km/h
13.05.2017 04:00 11,7 C 82 % 1005,5 hPa 0,0 l/m 0,1 km/h N 8,7 C 11,7 C 1,6 km/h
13.05.2017 05:00 13,8 C 80 % 1005,9 hPa 0,0 l/m 1,6 km/h N 10,3 C 13,8 C 13,3 km/h
13.05.2017 06:00 16,2 C 70 % 1006,2 hPa 0,0 l/m 9,0 km/h N 10,7 C 14,9 C 25,8 km/h
13.05.2017 07:00 16,8 C 69 % 1006,8 hPa 0,0 l/m 13,7 km/h N 11,0 C 13,7 C 30,6 km/h
13.05.2017 08:00 15,5 C 77 % 1008,0 hPa 1,3 l/m 7,3 km/h N 11,4 C 14,8 C 22,1 km/h
13.05.2017 09:00 14,9 C 81 % 1009,3 hPa 0,3 l/m 1,5 km/h N 11,6 C 14,9 C 8,4 km/h
13.05.2017 10:00 16,9 C 76 % 1009,7 hPa 0,0 l/m 5,0 km/h N 12,5 C 16,6 C 19,7 km/h
13.05.2017 11:00 19,2 C 66 % 1009,9 hPa 0,0 l/m 8,0 km/h N 12,7 C 18,5 C 30,6 km/h
13.05.2017 12:00 20,2 C 61 % 1010,1 hPa 0,0 l/m 8,3 km/h N 12,5 C 19,5 C 28,6 km/h
13.05.2017 13:00 20,6 C 60 % 1010,2 hPa 0,0 l/m 11,0 km/h N 12,4 C 19,0 C 30,6 km/h
13.05.2017 14:00 20,5 C 61 % 1010,3 hPa 0,0 l/m 10,8 km/h N 12,7 C 19,1 C 29,4 km/h
13.05.2017 15:00 21,5 C 58 % 1010,4 hPa 0,0 l/m 10,6 km/h N 12,8 C 20,2 C 29,0 km/h
13.05.2017 16:00 21,7 C 58 % 1010,7 hPa 0,0 l/m 10,9 km/h N 13,1 C 20,3 C 26,1 km/h
13.05.2017 17:00 20,9 C 58 % 1011,2 hPa 0,0 l/m 10,1 km/h N 12,3 C 19,7 C 27,0 km/h
13.05.2017 18:00 21,0 C 59 % 1011,4 hPa 0,0 l/m 6,9 km/h N 12,6 C 20,8 C 21,3 km/h
13.05.2017 19:00 20,8 C 60 % 1011,8 hPa 0,0 l/m 4,7 km/h N 12,8 C 20,8 C 16,9 km/h
13.05.2017 20:00 19,4 C 67 % 1012,8 hPa 0,3 l/m 3,6 km/h N 13,1 C 19,0 C 14,9 km/h
13.05.2017 21:00 16,8 C 74 % 1013,5 hPa 0,0 l/m 0,1 km/h N 12,1 C 16,8 C 2,8 km/h
13.05.2017 22:00 16,3 C 74 % 1013,8 hPa 0,0 l/m 0,1 km/h N 11,7 C 16,3 C 2,4 km/h
13.05.2017 23:00 16,6 C 74 % 1014,0 hPa 0,0 l/m 0,0 km/h N 11,9 C 16,6 C 1,6 km/h
14.05.2017 00:00 16,2 C 73 % 1014,4 hPa 0,0 l/m 0,0 km/h N 11,3 C 16,2 C 2,0 km/h
14.05.2017 01:00 14,8 C 75 % 1014,8 hPa 0,0 l/m 0,0 km/h N 10,4 C 14,8 C 0,8 km/h
14.05.2017 02:00 13,4 C 79 % 1015,1 hPa 0,0 l/m 0,0 km/h N 9,7 C 13,4 C 0,4 km/h
14.05.2017 03:00 12,4 C 80 % 1015,5 hPa 0,0 l/m 0,0 km/h N 9,0 C 12,4 C 0,0 km/h
14.05.2017 04:00 11,1 C 82 % 1016,0 hPa 0,0 l/m 0,0 km/h N 8,1 C 11,1 C 0,0 km/h
14.05.2017 05:00 10,3 C 82 % 1016,5 hPa 0,0 l/m 0,0 km/h N 7,3 C 10,3 C 0,0 km/h
14.05.2017 06:00 10,5 C 82 % 1017,1 hPa 0,0 l/m 0,0 km/h N 7,6 C 10,5 C 0,0 km/h
14.05.2017 07:00 13,1 C 82 % 1017,5 hPa 0,0 l/m 0,3 km/h N 10,1 C 13,1 C 4,0 km/h
14.05.2017 08:00 16,6 C 76 % 1017,9 hPa 0,0 l/m 2,0 km/h N 12,3 C 16,6 C 9,3 km/h
14.05.2017 09:00 19,3 C 66 % 1018,3 hPa 0,0 l/m 6,4 km/h N 12,8 C 19,2 C 18,5 km/h
14.05.2017 10:00 20,6 C 64 % 1018,5 hPa 0,0 l/m 6,7 km/h N 13,5 C 20,4 C 18,9 km/h
14.05.2017 11:00 21,6 C 60 % 1018,7 hPa 0,0 l/m 7,1 km/h N 13,4 C 21,3 C 23,3 km/h
14.05.2017 12:00 22,4 C 58 % 1018,7 hPa 0,0 l/m 5,6 km/h N 13,7 C 22,2 C 18,1 km/h
14.05.2017 13:00 22,8 C 56 % 1018,8 hPa 0,0 l/m 4,8 km/h N 13,4 C 22,8 C 17,3 km/h
14.05.2017 14:00 23,2 C 55 % 1018,8 hPa 0,0 l/m 7,3 km/h N 13,5 C 22,9 C 20,9 km/h
14.05.2017 15:00 23,3 C 54 % 1018,8 hPa 0,0 l/m 6,6 km/h N 13,4 C 23,1 C 17,3 km/h
14.05.2017 16:00 23,6 C 54 % 1018,5 hPa 0,0 l/m 6,5 km/h N 13,7 C 23,5 C 24,1 km/h
14.05.2017 17:00 22,9 C 55 % 1018,9 hPa 0,0 l/m 8,0 km/h N 13,3 C 22,4 C 23,3 km/h
14.05.2017 18:00 21,2 C 59 % 1019,1 hPa 0,0 l/m 2,9 km/h N 12,8 C 21,2 C 14,5 km/h
14.05.2017 19:00 21,0 C 59 % 1019,6 hPa 0,0 l/m 2,0 km/h N 12,7 C 21,0 C 9,3 km/h
14.05.2017 20:00 19,5 C 64 % 1020,4 hPa 0,0 l/m 0,2 km/h N 12,4 C 19,5 C 3,2 km/h
14.05.2017 21:00 18,4 C 67 % 1020,9 hPa 0,0 l/m 0,1 km/h N 12,0 C 18,4 C 2,8 km/h
14.05.2017 22:00 17,7 C 68 % 1021,4 hPa 0,0 l/m 0,3 km/h N 11,7 C 17,7 C 4,4 km/h
14.05.2017 23:00 18,1 C 69 % 1021,8 hPa 0,0 l/m 2,9 km/h N 12,3 C 18,1 C 12,1 km/h
Min-Datum _ 10.05.17 08.05.17 12.05.17 - 09.05.17 - 10.05.17 10.05.17 09.05.17
_ Min-Zeit 05:45 14:45 02:15 - 22:15 - 05:45 05:45 22:30
Minimum _ 0,2 C 44 % 999,5 hPa - 0,0 km/h - -2,5 C 0,2 C 0,0 km/h
Max-Datum _ 14.05.17 09.05.17 14.05.17 09.05.17 13.05.17 - 14.05.17 14.05.17 08.05.17
_ Max-Zeit 16:30 07:00 23:45 07:30 07:15 - 12:45 16:30 18:45
Maximum _ 23,7 C 83 % 1022,0 hPa 2,3 l/m 15,6 km/h
N
- 14,3 C 23,7 C 37,0 km/h
N
Durchschnitt _ 13,9 C 69 % 1010,1 hPa #8,3 l/m 3,3 km/h N 8,0 C 13,6 C 11,1 km/h